Time;durP1;ratioP1;P1;durP2;ratioP2;P2;SDS_P1;SDS_P2;PMS_P1;PMS_P2;Temp;Humidity;BMP_temperature;BMP_pressure;BME280_temperature;BME280_humidity;BME280_pressure;Samples;Min_cycle;Max_cycle;Signal;HPM_P1;HPM_P2
2022/07/08 00:00:54;;;;;;;2.70;2.50;;;23.50;98.70;;;;;;12982458;22;20213;-84
2022/07/08 00:05:56;;;;;;;2.85;2.65;;;23.50;98.80;;;;;;12955046;22;20617;-84
2022/07/08 00:10:59;;;;;;;2.65;2.45;;;23.50;99.00;;;;;;12955814;22;20217;-84
2022/07/08 00:16:02;;;;;;;3.33;2.90;;;23.50;98.90;;;;;;12982239;22;20193;-84
2022/07/08 00:21:04;;;;;;;3.08;2.88;;;23.30;99.20;;;;;;12955023;22;20211;-83
2022/07/08 00:26:07;;;;;;;2.80;2.60;;;23.40;99.40;;;;;;12982524;22;20526;-84
2022/07/08 00:31:09;;;;;;;2.80;2.60;;;23.30;99.40;;;;;;12982687;22;20219;-83
2022/07/08 00:36:12;;;;;;;2.63;2.42;;;23.30;99.30;;;;;;12954938;22;20787;-83
2022/07/08 00:41:15;;;;;;;5.88;5.28;;;23.30;99.40;;;;;;12982056;22;20216;-84
2022/07/08 00:46:17;;;;;;;3.17;2.88;;;23.20;99.80;;;;;;13000761;22;20169;-83
2022/07/08 00:51:20;;;;;;;3.63;3.33;;;23.30;99.60;;;;;;12981269;22;20211;-83
2022/07/08 00:56:22;;;;;;;2.60;2.40;;;23.30;99.60;;;;;;12954708;22;20523;-83
2022/07/08 01:01:25;;;;;;;3.33;3.08;;;23.30;99.70;;;;;;12954044;22;20189;-83
2022/07/08 01:06:28;;;;;;;3.10;2.90;;;23.30;99.80;;;;;;12954906;22;20170;-84
2022/07/08 01:11:30;;;;;;;3.97;2.80;;;23.30;99.70;;;;;;12981389;22;20174;-83
2022/07/08 01:16:33;;;;;;;7.10;6.15;;;23.20;99.90;;;;;;12971535;22;20185;-83
2022/07/08 01:21:36;;;;;;;3.22;2.92;;;22.80;99.90;;;;;;12980865;22;20231;-83
2022/07/08 01:26:38;;;;;;;3.92;3.63;;;23.10;99.90;;;;;;12953479;22;20174;-84
2022/07/08 01:31:41;;;;;;;4.43;3.80;;;23.10;99.90;;;;;;12971463;22;20514;-83
2022/07/08 01:36:44;;;;;;;3.13;2.92;;;22.80;99.90;;;;;;12954377;22;20185;-83
2022/07/08 01:41:46;;;;;;;4.70;4.30;;;22.40;99.90;;;;;;12980521;22;20170;-84
2022/07/08 01:46:48;;;;;;;7.90;5.03;;;22.40;99.90;;;;;;12980156;22;20165;-83
2022/07/08 01:51:51;;;;;;;4.55;4.15;;;21.00;99.90;;;;;;12951869;22;20235;-83
2022/07/08 01:57:13;;;;;;;2.88;2.67;;;21.30;99.90;;;;;;12979877;22;20239;-83
2022/07/08 02:02:18;;;;;;;4.10;3.45;;;22.40;99.90;;;;;;12972001;22;20501;-83
2022/07/08 02:07:21;;;;;;;3.45;3.25;;;22.20;99.90;;;;;;12951910;22;20178;-83
2022/07/08 02:12:23;;;;;;;3.30;3.10;;;21.40;99.90;;;;;;12951603;22;20215;-83
2022/07/08 02:17:26;;;;;;;2.83;2.63;;;22.30;99.90;;;;;;13000961;22;20189;-84
2022/07/08 02:22:28;;;;;;;3.92;3.05;;;22.60;99.90;;;;;;12984403;22;20169;-83
2022/07/08 02:27:31;;;;;;;3.78;2.97;;;22.60;99.90;;;;;;12983768;22;20227;-83
2022/07/08 02:32:33;;;;;;;2.85;2.65;;;22.80;99.90;;;;;;12955334;22;20558;-83
2022/07/08 02:37:36;;;;;;;3.35;3.05;;;22.70;99.90;;;;;;12981928;22;20189;-83
2022/07/08 02:42:39;;;;;;;2.83;2.63;;;22.30;99.90;;;;;;12982117;22;20227;-83
2022/07/08 02:47:41;;;;;;;3.05;2.85;;;22.80;99.90;;;;;;12954307;22;20231;-83
2022/07/08 02:52:43;;;;;;;2.75;2.55;;;22.40;99.90;;;;;;12981831;22;20173;-83
2022/07/08 02:57:46;;;;;;;3.95;3.13;;;22.90;99.90;;;;;;12929984;22;20231;-83
2022/07/08 03:02:48;;;;;;;2.92;2.70;;;22.90;99.90;;;;;;12981871;22;20513;-83
2022/07/08 03:07:51;;;;;;;3.03;2.83;;;23.10;99.90;;;;;;12999845;22;20223;-83
2022/07/08 03:12:53;;;;;;;3.30;3.10;;;23.20;99.90;;;;;;12982307;22;20212;-83
2022/07/08 03:17:56;;;;;;;3.03;2.83;;;23.10;99.90;;;;;;12984338;22;20572;-83
2022/07/08 03:22:58;;;;;;;3.00;2.80;;;23.00;99.90;;;;;;12983926;22;20251;-83
2022/07/08 03:28:01;;;;;;;3.90;3.58;;;23.10;99.90;;;;;;12982884;22;20169;-83
2022/07/08 03:33:04;;;;;;;2.92;2.70;;;23.20;99.90;;;;;;13000738;22;20170;-83
2022/07/08 03:38:06;;;;;;;4.25;3.88;;;23.00;99.90;;;;;;12955969;22;20189;-83
2022/07/08 03:43:09;;;;;;;3.72;3.42;;;22.80;99.90;;;;;;12983105;22;20184;-83
2022/07/08 03:48:11;;;;;;;9.38;7.53;;;23.10;99.90;;;;;;12956697;22;20551;-83
2022/07/08 03:53:14;;;;;;;5.18;3.67;;;22.80;99.90;;;;;;12983304;22;20223;-83
2022/07/08 03:58:16;;;;;;;3.65;3.35;;;23.00;99.90;;;;;;12955288;22;20194;-83
2022/07/08 04:03:19;;;;;;;4.32;3.85;;;22.90;99.90;;;;;;12983060;22;20235;-83
2022/07/08 04:08:21;;;;;;;4.72;4.20;;;22.80;99.90;;;;;;12982907;22;20173;-83
2022/07/08 04:13:27;;;;;;;3.80;3.50;;;22.80;99.90;;;;;;12982541;22;20222;-83
2022/07/08 04:18:29;;;;;;;7.47;6.53;;;23.00;99.90;;;;;;12983036;22;20552;-83
2022/07/08 04:23:33;;;;;;;4.07;3.75;;;22.80;99.90;;;;;;12955544;22;20166;-83
2022/07/08 04:28:35;;;;;;;8.10;5.95;;;23.00;99.90;;;;;;12954431;22;20174;-83
2022/07/08 04:33:38;;;;;;;4.28;3.63;;;22.80;99.90;;;;;;12982713;22;20556;-83
2022/07/08 04:38:41;;;;;;;3.92;3.63;;;23.00;99.90;;;;;;12981800;22;20232;-83
2022/07/08 04:43:44;;;;;;;7.40;6.70;;;22.90;99.90;;;;;;12982049;22;20162;-83
2022/07/08 04:48:46;;;;;;;11.00;7.28;;;22.80;99.90;;;;;;12982332;22;20231;-83
2022/07/08 04:53:49;;;;;;;4.97;4.20;;;22.80;99.90;;;;;;12981981;22;20556;-83
2022/07/08 04:58:52;;;;;;;7.57;6.40;;;22.90;99.90;;;;;;12954851;22;20185;-83
2022/07/08 05:03:55;;;;;;;9.52;7.00;;;22.80;99.90;;;;;;12982182;22;20543;-83
2022/07/08 05:08:58;;;;;;;4.78;4.32;;;22.50;99.90;;;;;;12981797;22;20170;-84
2022/07/08 05:14:00;;;;;;;5.18;4.78;;;22.70;99.90;;;;;;12981638;22;20509;-84
2022/07/08 05:19:04;;;;;;;10.45;5.80;;;22.30;99.90;;;;;;12954301;22;20170;-84
2022/07/08 05:24:07;;;;;;;5.32;4.43;;;22.10;99.90;;;;;;12994439;22;20174;-84
2022/07/08 05:29:10;;;;;;;6.03;4.90;;;22.60;99.90;;;;;;12981419;22;20169;-84
2022/07/08 05:34:15;;;;;;;6.05;4.75;;;22.70;99.90;;;;;;12980145;22;20211;-84
2022/07/08 05:39:17;;;;;;;9.48;5.38;;;22.40;99.90;;;;;;12980690;22;20170;-84
2022/07/08 05:44:20;;;;;;;5.38;4.88;;;22.80;99.90;;;;;;12981215;22;20161;-84
2022/07/08 05:49:28;;;;;;;4.93;4.40;;;22.60;99.90;;;;;;12953520;22;20166;-84
2022/07/08 05:54:32;;;;;;;5.10;4.60;;;22.90;99.90;;;;;;12952619;22;20190;-84
2022/07/08 05:59:34;;;;;;;5.32;4.82;;;22.80;99.90;;;;;;12980516;22;20185;-84
2022/07/08 06:04:37;;;;;;;4.82;4.43;;;22.80;99.90;;;;;;12978666;22;20202;-84
2022/07/08 06:09:40;;;;;;;5.05;4.55;;;22.30;99.90;;;;;;12951865;22;20208;-84
2022/07/08 06:14:42;;;;;;;12.95;6.10;;;22.60;99.90;;;;;;12980286;22;20185;-83
2022/07/08 06:19:45;;;;;;;5.10;4.38;;;22.60;99.90;;;;;;12952272;22;20200;-84
2022/07/08 06:24:47;;;;;;;4.72;4.32;;;22.70;99.90;;;;;;12979890;22;20487;-84
2022/07/08 06:29:50;;;;;;;7.75;6.15;;;22.90;99.90;;;;;;12980233;22;20551;-83
2022/07/08 06:34:53;;;;;;;14.45;8.40;;;22.80;99.90;;;;;;12980684;22;20216;-84
2022/07/08 06:39:55;;;;;;;10.25;6.28;;;22.30;99.90;;;;;;12953652;22;20546;-83
2022/07/08 06:44:58;;;;;;;16.27;6.63;;;21.80;99.90;;;;;;12954477;22;20166;-84
2022/07/08 06:50:01;;;;;;;11.55;6.38;;;21.50;99.90;;;;;;12980124;22;20166;-84
2022/07/08 06:55:04;;;;;;;12.63;7.00;;;21.00;99.90;;;;;;12980150;22;20190;-83
2022/07/08 07:00:07;;;;;;;9.55;7.00;;;21.00;99.90;;;;;;12982079;22;20193;-84
2022/07/08 07:05:25;;;;;;;8.52;6.82;;;21.00;99.90;;;;;;13003370;22;20170;-84
2022/07/08 07:10:28;;;;;;;8.07;6.32;;;21.30;99.90;;;;;;12984714;22;20173;-84
2022/07/08 07:15:30;;;;;;;9.13;5.82;;;21.80;99.90;;;;;;13001222;22;20235;-83
2022/07/08 07:20:32;;;;;;;10.77;5.78;;;22.10;99.90;;;;;;12982830;22;20166;-83
2022/07/08 07:25:35;;;;;;;8.90;5.72;;;21.40;99.90;;;;;;12930142;22;20975;-83
2022/07/08 07:30:37;;;;;;;14.25;5.97;;;21.50;99.90;;;;;;12983743;22;20192;-83
2022/07/08 07:35:46;;;;;;;7.90;5.50;;;21.70;99.90;;;;;;12982458;22;20539;-83
2022/07/08 07:40:48;;;;;;;9.43;5.22;;;21.40;99.90;;;;;;12982408;22;20166;-83
2022/07/08 07:45:51;;;;;;;9.45;5.45;;;21.00;99.90;;;;;;12955992;22;20699;-83
2022/07/08 07:50:53;;;;;;;9.38;5.97;;;21.20;99.90;;;;;;12982489;22;20223;-83
2022/07/08 07:55:57;;;;;;;9.50;6.82;;;21.10;99.90;;;;;;12983003;22;20182;-83
2022/07/08 08:01:00;;;;;;;8.27;6.28;;;21.60;99.90;;;;;;12917414;23;20202;-83
2022/07/08 08:06:04;;;;;;;11.30;5.18;;;22.00;99.90;;;;;;12918712;22;20182;-83
2022/07/08 08:11:07;;;;;;;7.25;5.70;;;22.10;99.90;;;;;;12919117;23;20178;-82
2022/07/08 08:16:09;;;;;;;8.80;5.38;;;22.10;99.90;;;;;;12919598;22;20229;-82
2022/07/08 08:21:14;;;;;;;10.07;5.40;;;22.40;99.90;;;;;;12917441;23;20555;-83
2022/07/08 08:26:17;;;;;;;5.68;4.15;;;22.60;99.90;;;;;;12918230;23;20173;-83
2022/07/08 08:31:19;;;;;;;6.07;5.07;;;22.80;99.90;;;;;;12890635;23;20213;-83
2022/07/08 08:36:23;;;;;;;9.18;4.75;;;22.70;99.90;;;;;;12916374;23;20194;-83
2022/07/08 08:41:26;;;;;;;16.23;6.25;;;22.20;99.90;;;;;;12916753;23;20170;-82
2022/07/08 08:46:32;;;;;;;7.78;5.68;;;21.60;99.90;;;;;;12916875;22;20178;-82
2022/07/08 08:51:36;;;;;;;10.63;5.78;;;21.40;99.90;;;;;;12890007;23;20174;-83
2022/07/08 08:56:39;;;;;;;8.75;4.88;;;22.00;99.90;;;;;;12890580;23;20191;-83
2022/07/08 09:01:42;;;;;;;6.43;4.70;;;22.20;99.90;;;;;;12977219;22;20186;-83
2022/07/08 09:06:44;;;;;;;12.02;5.72;;;22.10;99.90;;;;;;12998728;22;20190;-83
2022/07/08 09:11:47;;;;;;;6.32;5.35;;;22.20;99.90;;;;;;12978822;22;20181;-83
2022/07/08 09:17:12;;;;;;;7.05;4.10;;;23.00;99.90;;;;;;12999319;22;20571;-83
2022/07/08 09:22:15;;;;;;;6.70;4.53;;;22.70;99.90;;;;;;12952267;22;20177;-83
2022/07/08 09:27:18;;;;;;;5.53;4.13;;;22.80;99.90;;;;;;12953078;22;20628;-83
2022/07/08 09:32:20;;;;;;;6.10;4.30;;;22.40;99.90;;;;;;12928106;22;20231;-83
2022/07/08 09:37:23;;;;;;;5.95;4.68;;;22.80;99.90;;;;;;12953401;22;20528;-83
2022/07/08 09:42:25;;;;;;;5.22;4.32;;;22.90;99.90;;;;;;12980419;22;20204;-83
2022/07/08 09:47:33;;;;;;;7.07;4.50;;;23.20;99.90;;;;;;12981231;22;20200;-82
2022/07/08 09:52:36;;;;;;;5.57;4.63;;;23.10;99.90;;;;;;12994642;22;20686;-83
2022/07/08 09:57:38;;;;;;;7.57;4.80;;;23.30;99.90;;;;;;12989803;22;20243;-83
2022/07/08 10:02:42;;;;;;;6.00;4.53;;;23.60;99.90;;;;;;12995618;22;20166;-82
2022/07/08 10:07:44;;;;;;;6.10;4.05;;;23.40;99.70;;;;;;12977387;22;20169;-82
2022/07/08 10:12:48;;;;;;;6.45;4.60;;;22.90;99.30;;;;;;12951583;22;20177;-82
2022/07/08 10:17:51;;;;;;;5.57;4.15;;;23.00;99.90;;;;;;12951351;22;20259;-82
2022/07/08 10:22:59;;;;;;;6.97;4.40;;;23.00;99.90;;;;;;12979321;22;20227;-82
2022/07/08 10:28:10;;;;;;;5.25;4.07;;;22.60;99.90;;;;;;12971493;22;20196;-83
2022/07/08 10:33:18;;;;;;;4.13;3.72;;;22.80;99.90;;;;;;12997947;22;20839;-83
2022/07/08 10:38:40;;;;;;;3.58;3.17;;;23.10;98.90;;;;;;13000331;22;20190;-83
2022/07/08 10:43:50;;;;;;;4.85;4.38;;;22.70;99.30;;;;;;12982931;22;20162;-82
2022/07/08 10:49:01;;;;;;;5.45;3.70;;;23.10;99.80;;;;;;12982104;22;20169;-82
2022/07/08 10:54:05;;;;;;;5.07;2.55;;;23.30;99.80;;;;;;12955597;22;20239;-83
2022/07/08 10:59:26;;;;;;;4.55;2.70;;;23.20;98.70;;;;;;12930036;22;20722;-83
2022/07/08 11:04:35;;;;;;;4.57;2.53;;;23.30;99.00;;;;;;12973480;22;20195;-82
2022/07/08 11:09:39;;;;;;;5.32;3.53;;;23.40;98.90;;;;;;12956519;22;20199;-83
2022/07/08 11:14:44;;;;;;;6.70;3.30;;;23.40;98.20;;;;;;12957059;22;20542;-83
2022/07/08 11:19:48;;;;;;;3.40;3.10;;;23.40;98.20;;;;;;12955315;22;20717;-83
2022/07/08 11:24:51;;;;;;;3.95;2.03;;;23.40;99.20;;;;;;12954868;22;20702;-83
2022/07/08 11:29:55;;;;;;;4.25;3.85;;;23.00;97.80;;;;;;12982410;22;20192;-83
2022/07/08 11:34:58;;;;;;;4.72;3.45;;;22.90;99.90;;;;;;12981536;22;20169;-83
2022/07/08 11:40:01;;;;;;;4.82;3.92;;;22.90;99.90;;;;;;12954041;22;20243;-82
2022/07/08 11:45:09;;;;;;;4.32;2.08;;;22.90;99.50;;;;;;12979091;22;20166;-90
2022/07/08 11:50:11;;;;;;;4.88;2.53;;;21.30;99.80;;;;;;12929468;22;20231;-90
2022/07/08 11:55:14;;;;;;;8.00;4.97;;;20.10;99.90;;;;;;12929734;22;20177;-89
2022/07/08 12:00:17;;;;;;;14.10;7.65;;;19.50;99.90;;;;;;12954864;22;20255;-90
2022/07/08 12:05:19;;;;;;;11.30;7.20;;;19.00;99.90;;;;;;12955540;22;20637;-89
2022/07/08 12:10:22;;;;;;;13.47;7.10;;;18.80;99.90;;;;;;12982051;22;20174;-89
2022/07/08 12:15:34;;;;;;;7.18;5.38;;;18.60;99.90;;;;;;12955985;22;20174;-90
2022/07/08 12:20:39;;;;;;;5.75;4.43;;;19.50;99.90;;;;;;12929400;22;20223;-89
2022/07/08 12:25:47;;;;;;;9.30;5.85;;;20.00;99.90;;;;;;12954859;22;20550;-90
2022/07/08 12:30:49;;;;;;;8.05;5.57;;;19.90;99.90;;;;;;12981768;22;20208;-91
2022/07/08 12:35:52;;;;;;;14.50;5.22;;;20.30;99.90;;;;;;12953639;22;20624;-89
2022/07/08 12:41:17;;;;;;;9.23;4.78;;;20.10;99.90;;;;;;12930783;22;20250;-90
2022/07/08 12:46:20;;;;;;;17.48;4.57;;;20.70;99.90;;;;;;12974037;22;20165;-91
2022/07/08 12:51:22;;;;;;;9.25;2.88;;;20.20;99.90;;;;;;12953552;22;20173;-90
2022/07/08 12:56:25;;;;;;;3.85;2.50;;;19.80;99.90;;;;;;12954700;22;20181;-89
2022/07/08 13:01:28;;;;;;;3.85;2.63;;;19.40;99.90;;;;;;12954879;22;20190;-89
2022/07/08 13:06:30;;;;;;;4.32;2.40;;;19.30;99.90;;;;;;12955122;22;20223;-89
2022/07/08 13:11:33;;;;;;;5.25;2.70;;;19.20;99.90;;;;;;12981605;22;20595;-89
2022/07/08 13:16:36;;;;;;;4.57;2.33;;;19.30;99.90;;;;;;12954865;22;20189;-90
2022/07/08 13:21:39;;;;;;;4.78;1.95;;;20.70;99.90;;;;;;12955522;22;20508;-91
2022/07/08 13:26:42;;;;;;;6.07;1.27;;;21.30;99.90;;;;;;12954054;22;20177;-90
2022/07/08 13:31:44;;;;;;;5.28;1.95;;;21.80;99.90;;;;;;13001184;22;20256;-90
2022/07/08 13:36:47;;;;;;;3.65;1.60;;;22.00;99.90;;;;;;12955124;22;20190;-90
2022/07/08 13:41:50;;;;;;;4.80;1.23;;;22.10;99.90;;;;;;12953460;22;20240;-90
2022/07/08 13:46:53;;;;;;;5.75;1.60;;;22.00;99.60;;;;;;12953863;22;20173;-91
2022/07/08 13:51:55;;;;;;;7.10;1.30;;;22.10;99.00;;;;;;12952877;22;20632;-87
2022/07/08 13:56:58;;;;;;;8.05;1.50;;;22.10;99.80;;;;;;12949157;22;20185;-88
2022/07/08 14:02:00;;;;;;;19.58;1.88;;;22.10;99.90;;;;;;12927572;22;20197;-88
2022/07/08 14:07:03;;;;;;;9.15;1.70;;;22.40;98.80;;;;;;12997546;22;20215;-88
2022/07/08 14:12:09;;;;;;;9.18;2.08;;;23.20;99.90;;;;;;12983885;22;20644;-88
2022/07/08 14:17:13;;;;;;;5.10;1.65;;;23.80;98.60;;;;;;12956774;22;20824;-88
2022/07/08 14:22:15;;;;;;;4.55;1.40;;;23.80;98.20;;;;;;12957846;22;20170;-88
2022/07/08 14:27:18;;;;;;;4.45;1.80;;;24.50;97.40;;;;;;12984276;22;20196;-86
2022/07/08 14:32:20;;;;;;;9.80;1.55;;;23.10;96.00;;;;;;12975493;22;20166;-87
2022/07/08 14:37:23;;;;;;;7.47;1.85;;;20.70;99.90;;;;;;12955247;22;20224;-87
2022/07/08 14:42:32;;;;;;;5.07;1.95;;;20.10;99.90;;;;;;12985535;22;20192;-87
2022/07/08 14:47:41;;;;;;;5.90;2.00;;;19.70;99.90;;;;;;12956268;22;20227;-87
2022/07/08 14:52:43;;;;;;;4.00;2.22;;;20.00;99.90;;;;;;12957353;22;20223;-87
2022/07/08 14:57:46;;;;;;;4.88;2.10;;;19.70;99.90;;;;;;12983391;22;20193;-87
2022/07/08 15:02:48;;;;;;;7.47;2.10;;;20.00;99.90;;;;;;12983123;22;20166;-87
2022/07/08 15:07:50;;;;;;;5.03;2.30;;;19.40;99.90;;;;;;12957109;22;20170;-87
2022/07/08 15:12:53;;;;;;;9.02;2.13;;;20.70;99.90;;;;;;12984128;22;20170;-87
2022/07/08 15:17:56;;;;;;;11.60;2.65;;;20.90;99.90;;;;;;12976664;22;20190;-87
2022/07/08 15:22:58;;;;;;;2.80;1.50;;;19.70;99.90;;;;;;12945776;22;20243;-87
2022/07/08 15:28:01;;;;;;;11.10;2.05;;;20.30;99.90;;;;;;12995630;22;20506;-87
2022/07/08 15:33:04;;;;;;;4.35;2.25;;;22.20;99.90;;;;;;12978005;22;20219;-88
2022/07/08 15:38:06;;;;;;;4.00;2.00;;;22.90;99.90;;;;;;12950047;22;20523;-87
2022/07/08 15:43:09;;;;;;;6.53;2.83;;;23.50;99.70;;;;;;12924380;22;20228;-88
2022/07/08 15:48:12;;;;;;;5.25;2.22;;;23.40;99.80;;;;;;12948369;22;20203;-88
2022/07/08 15:53:14;;;;;;;4.90;1.77;;;23.90;99.20;;;;;;12976052;22;20223;-88
2022/07/08 15:58:17;;;;;;;6.03;2.05;;;23.80;98.20;;;;;;12966295;22;20220;-88
2022/07/08 16:03:19;;;;;;;5.00;1.58;;;24.00;96.70;;;;;;12974919;22;20166;-87
2022/07/08 16:08:23;;;;;;;4.40;1.98;;;24.10;96.40;;;;;;12977232;22;20200;-88
2022/07/08 16:13:25;;;;;;;3.13;1.98;;;24.30;97.70;;;;;;12995460;22;20166;-88
2022/07/08 16:18:28;;;;;;;3.28;1.55;;;24.30;97.30;;;;;;12976966;22;20186;-88
2022/07/08 16:23:31;;;;;;;3.45;1.77;;;24.10;95.90;;;;;;12976544;22;20192;-88
2022/07/08 16:28:34;;;;;;;5.53;2.00;;;24.40;96.60;;;;;;12950213;22;20166;-87
2022/07/08 16:33:36;;;;;;;4.43;1.77;;;24.60;96.10;;;;;;12976237;22;20170;-88
2022/07/08 16:38:39;;;;;;;5.18;2.10;;;24.40;94.60;;;;;;12976556;22;20189;-87
2022/07/08 16:43:41;;;;;;;4.28;1.65;;;24.30;94.60;;;;;;12977214;22;20162;-87
2022/07/08 16:48:44;;;;;;;2.67;1.33;;;24.20;95.70;;;;;;12924607;22;20521;-88
2022/07/08 16:53:47;;;;;;;4.43;1.50;;;24.50;95.40;;;;;;12923066;22;20243;-88
2022/07/08 16:58:50;;;;;;;2.35;1.75;;;23.40;92.30;;;;;;12978546;22;20190;-87
2022/07/08 17:03:52;;;;;;;6.72;1.30;;;24.20;96.70;;;;;;12979149;22;20553;-89
2022/07/08 17:08:55;;;;;;;4.93;1.67;;;21.60;92.40;;;;;;12980713;22;20173;-89
2022/07/08 17:13:59;;;;;;;3.35;1.05;;;20.50;95.50;;;;;;12953942;22;20188;-88
2022/07/08 17:19:03;;;;;;;4.95;1.30;;;20.10;96.00;;;;;;12949702;22;20241;-88
2022/07/08 17:24:05;;;;;;;2.53;1.13;;;19.80;97.20;;;;;;12977048;22;20169;-85
2022/07/08 17:34:29;;;;;;;3.30;1.25;;;21.80;93.90;;;;;;12994646;22;20170;-87
2022/07/08 17:39:31;;;;;;;2.00;0.93;;;22.70;92.40;;;;;;12949363;22;20193;-87
2022/07/08 17:44:35;;;;;;;3.45;1.55;;;22.90;92.20;;;;;;12977467;22;20166;-85
2022/07/08 17:49:38;;;;;;;5.85;1.50;;;22.60;91.80;;;;;;12980394;22;20192;-85
2022/07/08 17:54:41;;;;;;;7.55;1.60;;;21.70;93.10;;;;;;12979416;22;20173;-85
2022/07/08 17:59:43;;;;;;;5.88;1.70;;;21.40;94.30;;;;;;12980111;22;20193;-85
2022/07/08 18:04:49;;;;;;;6.35;1.88;;;21.00;95.40;;;;;;12978822;22;20193;-86
2022/07/08 18:09:52;;;;;;;4.78;1.33;;;20.70;96.00;;;;;;12992766;22;20219;-87
2022/07/08 18:14:54;;;;;;;4.00;1.60;;;21.30;95.60;;;;;;12952997;22;20517;-87
2022/07/08 18:19:57;;;;;;;4.47;1.45;;;21.50;95.20;;;;;;12979218;22;20216;-87
2022/07/08 18:24:59;;;;;;;4.10;1.27;;;22.00;94.60;;;;;;12976663;22;20557;-85
2022/07/08 18:30:02;;;;;;;1.42;1.00;;;22.50;93.70;;;;;;12979471;22;20550;-85
2022/07/08 18:35:05;;;;;;;4.03;1.33;;;22.80;93.20;;;;;;12953135;22;20166;-86
2022/07/08 18:40:08;;;;;;;9.50;2.20;;;22.70;93.30;;;;;;12978942;22;20243;-86
2022/07/08 18:45:11;;;;;;;4.63;1.80;;;21.60;95.20;;;;;;12979503;22;20189;-86
2022/07/08 18:50:14;;;;;;;6.82;1.17;;;22.00;95.20;;;;;;12951864;22;20240;-87
2022/07/08 18:55:16;;;;;;;2.35;0.90;;;21.90;95.40;;;;;;12978837;22;20471;-88
2022/07/08 19:00:19;;;;;;;3.85;1.27;;;22.10;95.00;;;;;;12955875;22;20228;-88
2022/07/08 19:05:22;;;;;;;2.60;1.10;;;22.50;94.60;;;;;;12930084;22;20231;-88
2022/07/08 19:10:26;;;;;;;4.90;1.10;;;22.50;94.60;;;;;;12955536;22;20192;-86
2022/07/08 19:15:30;;;;;;;2.15;0.93;;;22.80;94.10;;;;;;12982372;22;20254;-86
2022/07/08 19:20:33;;;;;;;1.88;0.77;;;22.90;94.20;;;;;;12981723;22;20255;-87
2022/07/08 19:25:35;;;;;;;5.93;1.67;;;22.80;94.20;;;;;;12983543;22;20166;-87
2022/07/08 19:30:38;;;;;;;2.60;0.90;;;22.50;94.80;;;;;;12983320;22;20474;-87
2022/07/08 19:35:40;;;;;;;1.77;1.27;;;22.70;94.70;;;;;;12981979;22;20219;-87
2022/07/08 19:40:43;;;;;;;1.00;0.80;;;22.80;94.80;;;;;;12955971;22;20239;-87
2022/07/08 19:45:45;;;;;;;2.08;0.80;;;22.70;94.90;;;;;;12982379;22;20216;-87
2022/07/08 19:50:48;;;;;;;2.83;1.10;;;22.50;95.10;;;;;;12982953;22;20501;-87
2022/07/08 19:55:51;;;;;;;1.08;0.52;;;22.40;95.60;;;;;;12955563;22;20216;-86
2022/07/08 20:00:54;;;;;;;2.75;0.95;;;22.50;95.90;;;;;;12981862;22;20193;-87
2022/07/08 20:05:57;;;;;;;1.42;0.75;;;22.90;95.00;;;;;;12981418;22;20166;-87
2022/07/08 20:10:59;;;;;;;2.47;0.88;;;22.90;95.30;;;;;;12982759;22;20238;-87
2022/07/08 20:16:02;;;;;;;2.97;0.90;;;23.10;94.80;;;;;;12982804;22;20170;-88
2022/07/08 20:21:05;;;;;;;1.42;1.00;;;23.10;94.80;;;;;;12953391;22;20267;-88
2022/07/08 20:26:08;;;;;;;1.35;0.90;;;22.90;94.90;;;;;;12954499;22;20714;-88
2022/07/08 20:31:10;;;;;;;2.85;0.80;;;23.10;94.80;;;;;;12927065;22;20178;-88
2022/07/08 20:36:13;;;;;;;1.17;0.85;;;23.20;94.80;;;;;;12953865;22;20177;-88
2022/07/08 20:46:43;;;;;;;1.48;0.85;;;22.80;95.50;;;;;;12998874;22;20166;-88
2022/07/08 20:51:46;;;;;;;5.22;0.98;;;22.90;95.60;;;;;;12928572;22;20200;-87
2022/07/08 20:56:49;;;;;;;5.13;1.30;;;22.90;95.70;;;;;;12982204;22;20548;-86
2022/07/08 21:01:54;;;;;;;1.60;0.90;;;22.60;96.50;;;;;;12980270;22;20556;-87
2022/07/08 21:06:56;;;;;;;1.20;0.90;;;22.80;96.20;;;;;;12972178;22;20166;-89
2022/07/08 21:11:59;;;;;;;1.17;0.80;;;22.90;95.80;;;;;;12953668;22;20698;-88
2022/07/08 21:17:01;;;;;;;1.35;0.70;;;23.00;95.70;;;;;;12980849;22;20223;-87
2022/07/08 21:22:04;;;;;;;2.97;1.20;;;23.00;95.70;;;;;;12981055;22;20211;-86
2022/07/08 21:27:07;;;;;;;1.58;0.82;;;22.90;95.80;;;;;;12980878;22;20174;-86
2022/07/08 21:32:09;;;;;;;4.90;1.10;;;23.00;95.70;;;;;;12980753;22;20552;-86
2022/07/08 21:37:12;;;;;;;1.10;0.90;;;22.90;95.90;;;;;;12954400;22;20552;-86
2022/07/08 21:42:14;;;;;;;0.93;0.85;;;22.90;95.90;;;;;;12984819;22;20235;-86
2022/07/08 21:47:17;;;;;;;2.85;1.17;;;23.00;95.90;;;;;;12954473;22;20196;-87
2022/07/08 21:52:19;;;;;;;1.13;0.80;;;23.10;95.80;;;;;;12981513;22;20170;-84
2022/07/08 21:57:22;;;;;;;2.55;0.93;;;22.80;96.30;;;;;;12980577;22;20235;-85
2022/07/08 22:02:24;;;;;;;3.25;1.00;;;22.70;96.40;;;;;;12927094;22;20254;-86
2022/07/08 22:07:27;;;;;;;1.27;0.98;;;22.80;96.50;;;;;;12981182;22;20544;-86
2022/07/08 22:12:30;;;;;;;1.42;0.90;;;22.90;96.20;;;;;;12981032;22;20173;-85
2022/07/08 22:17:33;;;;;;;1.17;0.82;;;22.90;96.20;;;;;;12999441;22;20502;-86
2022/07/08 22:22:35;;;;;;;1.73;1.05;;;22.90;96.40;;;;;;12952579;22;20263;-87
2022/07/08 22:27:38;;;;;;;1.15;0.98;;;22.80;96.40;;;;;;12979216;22;20510;-87
2022/07/08 22:32:40;;;;;;;1.52;1.00;;;22.90;96.60;;;;;;13001810;22;20498;-86
2022/07/08 22:37:43;;;;;;;1.40;1.00;;;22.90;96.60;;;;;;12957030;22;20174;-86
2022/07/08 22:42:45;;;;;;;0.90;0.90;;;22.90;96.50;;;;;;12930785;22;20197;-86
2022/07/08 22:47:49;;;;;;;2.33;1.10;;;22.80;96.60;;;;;;12984169;22;20629;-87
2022/07/08 22:52:51;;;;;;;2.13;1.48;;;22.90;96.60;;;;;;12955961;22;20178;-86
2022/07/08 22:57:53;;;;;;;1.52;1.40;;;22.80;96.70;;;;;;12930560;22;20228;-86
2022/07/08 23:02:56;;;;;;;2.35;1.05;;;22.80;96.80;;;;;;12983644;22;20197;-86
2022/07/08 23:07:58;;;;;;;2.58;1.50;;;22.80;96.90;;;;;;12954456;22;20223;-86
2022/07/08 23:13:01;;;;;;;2.72;1.15;;;22.70;96.90;;;;;;12957089;22;20173;-86
2022/07/08 23:18:03;;;;;;;1.20;0.98;;;22.80;97.00;;;;;;13000195;22;20196;-86
2022/07/08 23:23:06;;;;;;;1.30;1.20;;;22.70;97.10;;;;;;12983441;22;20538;-86
2022/07/08 23:28:10;;;;;;;1.48;1.05;;;22.70;97.20;;;;;;12983246;22;20184;-87
2022/07/08 23:33:12;;;;;;;3.25;1.10;;;22.70;97.20;;;;;;13000647;22;20622;-87
2022/07/08 23:38:15;;;;;;;3.47;1.35;;;22.60;97.30;;;;;;12956102;22;20162;-86
2022/07/08 23:43:17;;;;;;;1.20;1.10;;;22.60;97.30;;;;;;12982101;22;20166;-86
2022/07/08 23:48:20;;;;;;;1.23;1.00;;;22.60;97.40;;;;;;12982278;22;20162;-87
2022/07/08 23:53:22;;;;;;;1.27;1.17;;;22.60;97.50;;;;;;12982880;22;20207;-87
2022/07/08 23:58:24;;;;;;;4.15;1.17;;;22.60;97.40;;;;;;12982021;22;20211;-87
